sensor_id;sensor_type;location;lat;lon;timestamp;temperature;humidity
25914;DHT22;13718;50.922;5.346;2022-11-30T00:02:24;9.20;99.90
25914;DHT22;13718;50.922;5.346;2022-11-30T00:04:49;9.20;99.90
25914;DHT22;13718;50.922;5.346;2022-11-30T00:07:15;9.20;99.90
25914;DHT22;13718;50.922;5.346;2022-11-30T00:09:41;9.20;99.90
25914;DHT22;13718;50.922;5.346;2022-11-30T00:12:06;9.20;99.90
25914;DHT22;13718;50.922;5.346;2022-11-30T00:14:32;9.20;99.90
25914;DHT22;13718;50.922;5.346;2022-11-30T00:16:58;9.20;99.90
25914;DHT22;13718;50.922;5.346;2022-11-30T00:19:23;9.10;99.90
25914;DHT22;13718;50.922;5.346;2022-11-30T00:21:49;9.20;99.90
25914;DHT22;13718;50.922;5.346;2022-11-30T00:24:14;9.20;99.90
25914;DHT22;13718;50.922;5.346;2022-11-30T00:26:40;9.20;99.90
25914;DHT22;13718;50.922;5.346;2022-11-30T00:29:06;9.20;99.90
25914;DHT22;13718;50.922;5.346;2022-11-30T00:31:31;9.10;99.90
25914;DHT22;13718;50.922;5.346;2022-11-30T00:33:57;9.20;99.90
25914;DHT22;13718;50.922;5.346;2022-11-30T00:36:23;9.10;99.90
25914;DHT22;13718;50.922;5.346;2022-11-30T00:38:50;9.10;99.90
25914;DHT22;13718;50.922;5.346;2022-11-30T00:41:17;9.10;99.90
25914;DHT22;13718;50.922;5.346;2022-11-30T00:43:43;9.10;99.90
25914;DHT22;13718;50.922;5.346;2022-11-30T00:46:09;9.10;99.90
25914;DHT22;13718;50.922;5.346;2022-11-30T00:48:36;9.10;99.90
25914;DHT22;13718;50.922;5.346;2022-11-30T00:51:02;9.10;99.90
25914;DHT22;13718;50.922;5.346;2022-11-30T00:53:28;9.00;99.90
25914;DHT22;13718;50.922;5.346;2022-11-30T00:55:54;9.10;99.90
25914;DHT22;13718;50.922;5.346;2022-11-30T00:58:19;9.10;99.90
25914;DHT22;13718;50.922;5.346;2022-11-30T01:00:45;9.00;99.90
25914;DHT22;13718;50.922;5.346;2022-11-30T01:03:11;9.00;99.90
25914;DHT22;13718;50.922;5.346;2022-11-30T01:05:37;9.10;99.90
25914;DHT22;13718;50.922;5.346;2022-11-30T01:08:05;9.10;99.90
25914;DHT22;13718;50.922;5.346;2022-11-30T01:10:32;9.00;99.90
25914;DHT22;13718;50.922;5.346;2022-11-30T01:12:58;9.00;99.90
25914;DHT22;13718;50.922;5.346;2022-11-30T01:15:23;9.00;99.90
25914;DHT22;13718;50.922;5.346;2022-11-30T01:17:49;9.00;99.90
25914;DHT22;13718;50.922;5.346;2022-11-30T01:20:15;8.90;99.90
25914;DHT22;13718;50.922;5.346;2022-11-30T01:22:40;8.90;99.90
25914;DHT22;13718;50.922;5.346;2022-11-30T01:25:06;8.90;99.90
25914;DHT22;13718;50.922;5.346;2022-11-30T01:27:32;8.80;99.90
25914;DHT22;13718;50.922;5.346;2022-11-30T01:29:57;8.80;99.90
25914;DHT22;13718;50.922;5.346;2022-11-30T01:32:23;8.70;99.90
25914;DHT22;13718;50.922;5.346;2022-11-30T01:34:48;8.70;99.90
25914;DHT22;13718;50.922;5.346;2022-11-30T01:37:14;8.70;99.90
25914;DHT22;13718;50.922;5.346;2022-11-30T01:39:40;8.70;99.90
25914;DHT22;13718;50.922;5.346;2022-11-30T01:42:13;8.70;99.90
25914;DHT22;13718;50.922;5.346;2022-11-30T01:44:55;8.60;99.90
25914;DHT22;13718;50.922;5.346;2022-11-30T01:47:36;8.60;99.90
25914;DHT22;13718;50.922;5.346;2022-11-30T01:50:20;8.70;99.90
25914;DHT22;13718;50.922;5.346;2022-11-30T01:52:50;8.60;99.90
25914;DHT22;13718;50.922;5.346;2022-11-30T01:55:31;8.50;99.90
25914;DHT22;13718;50.922;5.346;2022-11-30T01:58:23;8.50;99.90
25914;DHT22;13718;50.922;5.346;2022-11-30T02:00:49;8.50;99.90
25914;DHT22;13718;50.922;5.346;2022-11-30T02:06:05;8.50;99.90
25914;DHT22;13718;50.922;5.346;2022-11-30T02:08:32;8.40;99.90
25914;DHT22;13718;50.922;5.346;2022-11-30T02:11:03;8.40;99.90
25914;DHT22;13718;50.922;5.346;2022-11-30T02:13:46;8.40;99.90
25914;DHT22;13718;50.922;5.346;2022-11-30T02:21:52;8.40;99.90
25914;DHT22;13718;50.922;5.346;2022-11-30T02:27:29;8.30;99.90
25914;DHT22;13718;50.922;5.346;2022-11-30T02:32:39;8.30;99.90
25914;DHT22;13718;50.922;5.346;2022-11-30T02:35:07;8.30;99.90
25914;DHT22;13718;50.922;5.346;2022-11-30T02:37:34;8.30;99.90
25914;DHT22;13718;50.922;5.346;2022-11-30T02:40:00;8.30;99.90
25914;DHT22;13718;50.922;5.346;2022-11-30T02:42:25;8.30;99.90
25914;DHT22;13718;50.922;5.346;2022-11-30T02:44:52;8.30;99.90
25914;DHT22;13718;50.922;5.346;2022-11-30T02:47:33;8.30;99.90
25914;DHT22;13718;50.922;5.346;2022-11-30T02:50:02;8.30;99.90
25914;DHT22;13718;50.922;5.346;2022-11-30T02:52:29;8.30;99.90
25914;DHT22;13718;50.922;5.346;2022-11-30T02:55:04;8.20;99.90
25914;DHT22;13718;50.922;5.346;2022-11-30T02:57:31;8.30;99.90
25914;DHT22;13718;50.922;5.346;2022-11-30T02:59:57;8.30;99.90
25914;DHT22;13718;50.922;5.346;2022-11-30T03:02:24;8.30;99.90
25914;DHT22;13718;50.922;5.346;2022-11-30T03:04:50;8.30;99.90
25914;DHT22;13718;50.922;5.346;2022-11-30T03:07:15;8.30;99.90
25914;DHT22;13718;50.922;5.346;2022-11-30T03:09:41;8.30;99.90
25914;DHT22;13718;50.922;5.346;2022-11-30T03:12:07;8.30;99.90
25914;DHT22;13718;50.922;5.346;2022-11-30T03:14:32;8.30;99.90
25914;DHT22;13718;50.922;5.346;2022-11-30T03:16:58;8.30;99.90
25914;DHT22;13718;50.922;5.346;2022-11-30T03:19:23;8.30;99.90
25914;DHT22;13718;50.922;5.346;2022-11-30T03:21:49;8.30;99.90
25914;DHT22;13718;50.922;5.346;2022-11-30T03:24:14;8.30;99.90
25914;DHT22;13718;50.922;5.346;2022-11-30T03:26:40;8.30;99.90
25914;DHT22;13718;50.922;5.346;2022-11-30T03:29:06;8.30;99.90
25914;DHT22;13718;50.922;5.346;2022-11-30T03:31:31;8.30;99.90
25914;DHT22;13718;50.922;5.346;2022-11-30T03:33:57;8.30;99.90
25914;DHT22;13718;50.922;5.346;2022-11-30T03:36:22;8.30;99.90
25914;DHT22;13718;50.922;5.346;2022-11-30T03:38:48;8.30;99.90
25914;DHT22;13718;50.922;5.346;2022-11-30T03:41:15;8.30;99.90
25914;DHT22;13718;50.922;5.346;2022-11-30T03:43:44;8.30;99.90
25914;DHT22;13718;50.922;5.346;2022-11-30T03:46:11;8.30;99.90
25914;DHT22;13718;50.922;5.346;2022-11-30T03:48:37;8.30;99.90
25914;DHT22;13718;50.922;5.346;2022-11-30T03:51:04;8.30;99.90
25914;DHT22;13718;50.922;5.346;2022-11-30T03:53:30;8.30;99.90
25914;DHT22;13718;50.922;5.346;2022-11-30T03:55:59;8.30;99.90
25914;DHT22;13718;50.922;5.346;2022-11-30T03:58:25;8.30;99.90
25914;DHT22;13718;50.922;5.346;2022-11-30T04:01:01;8.30;99.90
25914;DHT22;13718;50.922;5.346;2022-11-30T04:03:27;8.30;99.90
25914;DHT22;13718;50.922;5.346;2022-11-30T04:05:53;8.30;99.90
25914;DHT22;13718;50.922;5.346;2022-11-30T04:08:19;8.30;99.90
25914;DHT22;13718;50.922;5.346;2022-11-30T04:10:52;8.30;99.90
25914;DHT22;13718;50.922;5.346;2022-11-30T04:13:18;8.30;99.90
25914;DHT22;13718;50.922;5.346;2022-11-30T04:15:48;8.30;99.90
25914;DHT22;13718;50.922;5.346;2022-11-30T04:18:15;8.30;99.90
25914;DHT22;13718;50.922;5.346;2022-11-30T04:20:41;8.20;99.90
25914;DHT22;13718;50.922;5.346;2022-11-30T04:23:08;8.30;99.90
25914;DHT22;13718;50.922;5.346;2022-11-30T04:25:33;8.30;99.90
25914;DHT22;13718;50.922;5.346;2022-11-30T04:27:59;8.30;99.90
25914;DHT22;13718;50.922;5.346;2022-11-30T04:30:25;8.30;99.90
25914;DHT22;13718;50.922;5.346;2022-11-30T04:32:50;8.30;99.90
25914;DHT22;13718;50.922;5.346;2022-11-30T04:35:16;8.30;99.90
25914;DHT22;13718;50.922;5.346;2022-11-30T04:37:41;8.30;99.90
25914;DHT22;13718;50.922;5.346;2022-11-30T04:40:08;8.30;99.90
25914;DHT22;13718;50.922;5.346;2022-11-30T04:42:34;8.30;99.90
25914;DHT22;13718;50.922;5.346;2022-11-30T04:44:59;8.30;99.90
25914;DHT22;13718;50.922;5.346;2022-11-30T04:47:25;8.30;99.90
25914;DHT22;13718;50.922;5.346;2022-11-30T04:49:51;8.30;99.90
25914;DHT22;13718;50.922;5.346;2022-11-30T04:52:16;8.30;99.90
25914;DHT22;13718;50.922;5.346;2022-11-30T04:54:42;8.30;99.90
25914;DHT22;13718;50.922;5.346;2022-11-30T04:57:07;8.30;99.90
25914;DHT22;13718;50.922;5.346;2022-11-30T04:59:33;8.30;99.90
25914;DHT22;13718;50.922;5.346;2022-11-30T05:01:58;8.30;99.90
25914;DHT22;13718;50.922;5.346;2022-11-30T05:04:24;8.30;99.90
25914;DHT22;13718;50.922;5.346;2022-11-30T05:06:50;8.30;99.90
25914;DHT22;13718;50.922;5.346;2022-11-30T05:09:15;8.30;99.90
25914;DHT22;13718;50.922;5.346;2022-11-30T05:11:41;8.30;99.90
25914;DHT22;13718;50.922;5.346;2022-11-30T05:14:06;8.30;99.90
25914;DHT22;13718;50.922;5.346;2022-11-30T05:16:32;8.30;99.90
25914;DHT22;13718;50.922;5.346;2022-11-30T05:18:58;8.30;99.90
25914;DHT22;13718;50.922;5.346;2022-11-30T05:21:23;8.30;99.90
25914;DHT22;13718;50.922;5.346;2022-11-30T05:23:49;8.30;99.90
25914;DHT22;13718;50.922;5.346;2022-11-30T05:26:15;8.30;99.90
25914;DHT22;13718;50.922;5.346;2022-11-30T05:28:41;8.30;99.90
25914;DHT22;13718;50.922;5.346;2022-11-30T05:31:07;8.30;99.90
25914;DHT22;13718;50.922;5.346;2022-11-30T05:33:32;8.30;99.90
25914;DHT22;13718;50.922;5.346;2022-11-30T05:35:58;8.30;99.90
25914;DHT22;13718;50.922;5.346;2022-11-30T05:38:24;8.30;99.90
25914;DHT22;13718;50.922;5.346;2022-11-30T05:40:49;8.30;99.90
25914;DHT22;13718;50.922;5.346;2022-11-30T05:43:15;8.30;99.90
25914;DHT22;13718;50.922;5.346;2022-11-30T05:45:41;8.30;99.90
25914;DHT22;13718;50.922;5.346;2022-11-30T05:48:06;8.30;99.90
25914;DHT22;13718;50.922;5.346;2022-11-30T05:50:32;8.30;99.90
25914;DHT22;13718;50.922;5.346;2022-11-30T05:52:57;8.30;99.90
25914;DHT22;13718;50.922;5.346;2022-11-30T05:55:26;8.40;99.90
25914;DHT22;13718;50.922;5.346;2022-11-30T05:57:53;8.30;99.90
25914;DHT22;13718;50.922;5.346;2022-11-30T06:00:19;8.40;99.90
25914;DHT22;13718;50.922;5.346;2022-11-30T06:02:45;8.30;99.90
25914;DHT22;13718;50.922;5.346;2022-11-30T06:05:11;8.40;99.90
25914;DHT22;13718;50.922;5.346;2022-11-30T06:07:38;8.50;99.90
25914;DHT22;13718;50.922;5.346;2022-11-30T06:10:05;8.50;99.90
25914;DHT22;13718;50.922;5.346;2022-11-30T06:12:31;8.50;99.90
25914;DHT22;13718;50.922;5.346;2022-11-30T06:14:56;8.40;99.90
25914;DHT22;13718;50.922;5.346;2022-11-30T06:17:22;8.40;99.90
25914;DHT22;13718;50.922;5.346;2022-11-30T06:19:48;8.40;99.90
25914;DHT22;13718;50.922;5.346;2022-11-30T06:22:13;8.40;99.90
25914;DHT22;13718;50.922;5.346;2022-11-30T06:24:39;8.50;99.90
25914;DHT22;13718;50.922;5.346;2022-11-30T06:27:04;8.50;99.90
25914;DHT22;13718;50.922;5.346;2022-11-30T06:29:30;8.50;99.90
25914;DHT22;13718;50.922;5.346;2022-11-30T06:31:55;8.50;99.90
25914;DHT22;13718;50.922;5.346;2022-11-30T06:34:21;8.50;99.90
25914;DHT22;13718;50.922;5.346;2022-11-30T06:36:47;8.50;99.90
25914;DHT22;13718;50.922;5.346;2022-11-30T06:39:12;8.50;99.90
25914;DHT22;13718;50.922;5.346;2022-11-30T06:41:38;8.50;99.90
25914;DHT22;13718;50.922;5.346;2022-11-30T06:44:08;8.50;99.90
25914;DHT22;13718;50.922;5.346;2022-11-30T06:46:34;8.40;99.90
25914;DHT22;13718;50.922;5.346;2022-11-30T06:48:59;8.50;99.90
25914;DHT22;13718;50.922;5.346;2022-11-30T06:51:25;8.50;99.90
25914;DHT22;13718;50.922;5.346;2022-11-30T06:53:51;8.40;99.90
25914;DHT22;13718;50.922;5.346;2022-11-30T06:56:16;8.50;99.90
25914;DHT22;13718;50.922;5.346;2022-11-30T06:58:42;8.50;99.90
25914;DHT22;13718;50.922;5.346;2022-11-30T07:01:10;8.50;99.90
25914;DHT22;13718;50.922;5.346;2022-11-30T07:03:37;8.50;99.90
25914;DHT22;13718;50.922;5.346;2022-11-30T07:06:07;8.50;99.90
25914;DHT22;13718;50.922;5.346;2022-11-30T07:08:33;8.60;99.90
25914;DHT22;13718;50.922;5.346;2022-11-30T07:10:59;8.60;99.90
25914;DHT22;13718;50.922;5.346;2022-11-30T07:13:24;8.60;99.90
25914;DHT22;13718;50.922;5.346;2022-11-30T07:15:50;8.60;99.90
25914;DHT22;13718;50.922;5.346;2022-11-30T07:18:16;8.50;99.90
25914;DHT22;13718;50.922;5.346;2022-11-30T07:20:41;8.60;99.90
25914;DHT22;13718;50.922;5.346;2022-11-30T07:23:07;8.70;99.90
25914;DHT22;13718;50.922;5.346;2022-11-30T07:25:52;8.70;99.90
25914;DHT22;13718;50.922;5.346;2022-11-30T07:28:37;8.60;99.90
25914;DHT22;13718;50.922;5.346;2022-11-30T07:31:18;8.50;99.90
25914;DHT22;13718;50.922;5.346;2022-11-30T07:33:44;8.60;99.90
25914;DHT22;13718;50.922;5.346;2022-11-30T07:36:10;8.60;99.90
25914;DHT22;13718;50.922;5.346;2022-11-30T07:38:36;8.50;99.90
25914;DHT22;13718;50.922;5.346;2022-11-30T07:41:01;8.60;99.90
25914;DHT22;13718;50.922;5.346;2022-11-30T07:43:27;8.50;99.90
25914;DHT22;13718;50.922;5.346;2022-11-30T07:45:53;8.60;99.90
25914;DHT22;13718;50.922;5.346;2022-11-30T07:48:20;8.60;99.90
25914;DHT22;13718;50.922;5.346;2022-11-30T07:50:47;8.60;99.90
25914;DHT22;13718;50.922;5.346;2022-11-30T07:53:13;8.70;99.90
25914;DHT22;13718;50.922;5.346;2022-11-30T07:55:39;8.60;99.90
25914;DHT22;13718;50.922;5.346;2022-11-30T07:58:04;8.60;99.90
25914;DHT22;13718;50.922;5.346;2022-11-30T08:00:30;8.70;99.90
25914;DHT22;13718;50.922;5.346;2022-11-30T08:02:56;8.70;99.90
25914;DHT22;13718;50.922;5.346;2022-11-30T08:05:22;8.70;99.90
25914;DHT22;13718;50.922;5.346;2022-11-30T08:07:52;8.70;99.90
25914;DHT22;13718;50.922;5.346;2022-11-30T08:10:19;8.80;99.90
25914;DHT22;13718;50.922;5.346;2022-11-30T08:12:45;8.80;99.90
25914;DHT22;13718;50.922;5.346;2022-11-30T08:15:11;8.80;99.90
25914;DHT22;13718;50.922;5.346;2022-11-30T08:17:36;8.90;99.90
25914;DHT22;13718;50.922;5.346;2022-11-30T08:20:02;8.90;99.90
25914;DHT22;13718;50.922;5.346;2022-11-30T08:22:28;8.90;99.90
25914;DHT22;13718;50.922;5.346;2022-11-30T08:24:54;9.00;99.90
25914;DHT22;13718;50.922;5.346;2022-11-30T08:27:19;9.00;99.90
25914;DHT22;13718;50.922;5.346;2022-11-30T08:29:45;9.00;99.90
25914;DHT22;13718;50.922;5.346;2022-11-30T08:32:10;9.10;99.90
25914;DHT22;13718;50.922;5.346;2022-11-30T08:34:36;9.10;99.90
25914;DHT22;13718;50.922;5.346;2022-11-30T08:37:02;9.20;99.90
25914;DHT22;13718;50.922;5.346;2022-11-30T08:39:28;9.20;99.90
25914;DHT22;13718;50.922;5.346;2022-11-30T08:41:56;9.20;99.90
25914;DHT22;13718;50.922;5.346;2022-11-30T08:44:22;9.20;99.90
25914;DHT22;13718;50.922;5.346;2022-11-30T08:46:47;9.10;99.90
25914;DHT22;13718;50.922;5.346;2022-11-30T08:49:13;9.20;99.90
25914;DHT22;13718;50.922;5.346;2022-11-30T08:51:38;9.20;99.90
25914;DHT22;13718;50.922;5.346;2022-11-30T08:54:04;9.20;99.90
25914;DHT22;13718;50.922;5.346;2022-11-30T08:56:30;9.30;99.90
25914;DHT22;13718;50.922;5.346;2022-11-30T08:58:55;9.30;99.90
25914;DHT22;13718;50.922;5.346;2022-11-30T09:01:23;9.30;99.90
25914;DHT22;13718;50.922;5.346;2022-11-30T09:03:52;9.40;99.90
25914;DHT22;13718;50.922;5.346;2022-11-30T09:06:20;9.40;99.90
25914;DHT22;13718;50.922;5.346;2022-11-30T09:08:47;9.40;99.90
25914;DHT22;13718;50.922;5.346;2022-11-30T09:11:16;9.50;99.90
25914;DHT22;13718;50.922;5.346;2022-11-30T09:13:43;9.50;99.90
25914;DHT22;13718;50.922;5.346;2022-11-30T09:16:10;9.50;99.90
25914;DHT22;13718;50.922;5.346;2022-11-30T09:18:36;9.50;99.90
25914;DHT22;13718;50.922;5.346;2022-11-30T09:21:04;9.60;99.90
25914;DHT22;13718;50.922;5.346;2022-11-30T09:23:30;9.70;99.90
25914;DHT22;13718;50.922;5.346;2022-11-30T09:25:59;9.70;99.90
25914;DHT22;13718;50.922;5.346;2022-11-30T09:28:25;9.70;99.90
25914;DHT22;13718;50.922;5.346;2022-11-30T09:30:52;9.70;99.90
25914;DHT22;13718;50.922;5.346;2022-11-30T09:33:18;9.80;99.90
25914;DHT22;13718;50.922;5.346;2022-11-30T09:35:53;9.70;99.90
25914;DHT22;13718;50.922;5.346;2022-11-30T09:38:18;9.80;99.90
25914;DHT22;13718;50.922;5.346;2022-11-30T09:40:45;9.90;99.90
25914;DHT22;13718;50.922;5.346;2022-11-30T09:43:34;9.90;99.90
25914;DHT22;13718;50.922;5.346;2022-11-30T09:46:04;9.90;99.90
25914;DHT22;13718;50.922;5.346;2022-11-30T09:50:59;10.00;99.90
25914;DHT22;13718;50.922;5.346;2022-11-30T09:53:43;10.00;99.90
25914;DHT22;13718;50.922;5.346;2022-11-30T09:58:53;10.10;99.90
25914;DHT22;13718;50.922;5.346;2022-11-30T10:01:20;10.00;99.90
25914;DHT22;13718;50.922;5.346;2022-11-30T10:03:47;10.00;99.90
25914;DHT22;13718;50.922;5.346;2022-11-30T10:06:40;10.00;99.90
25914;DHT22;13718;50.922;5.346;2022-11-30T10:09:26;10.10;99.90
25914;DHT22;13718;50.922;5.346;2022-11-30T10:12:13;10.10;99.90
25914;DHT22;13718;50.922;5.346;2022-11-30T10:17:41;10.10;99.90
25914;DHT22;13718;50.922;5.346;2022-11-30T10:31:12;10.40;99.90
25914;DHT22;13718;50.922;5.346;2022-11-30T10:33:50;10.50;99.90
25914;DHT22;13718;50.922;5.346;2022-11-30T10:36:38;10.50;99.90
25914;DHT22;13718;50.922;5.346;2022-11-30T10:39:13;10.70;99.90
25914;DHT22;13718;50.922;5.346;2022-11-30T10:41:47;10.70;99.90
25914;DHT22;13718;50.922;5.346;2022-11-30T10:44:33;10.70;99.90
25914;DHT22;13718;50.922;5.346;2022-11-30T10:47:08;10.70;99.90
25914;DHT22;13718;50.922;5.346;2022-11-30T10:49:36;10.50;99.90
25914;DHT22;13718;50.922;5.346;2022-11-30T10:52:06;10.40;99.90
25914;DHT22;13718;50.922;5.346;2022-11-30T10:54:34;10.50;99.90
25914;DHT22;13718;50.922;5.346;2022-11-30T10:57:02;10.70;99.90
25914;DHT22;13718;50.922;5.346;2022-11-30T10:59:49;10.80;99.90
25914;DHT22;13718;50.922;5.346;2022-11-30T11:02:38;10.80;99.90
25914;DHT22;13718;50.922;5.346;2022-11-30T11:10:18;11.00;99.90
25914;DHT22;13718;50.922;5.346;2022-11-30T11:12:49;11.10;99.90
25914;DHT22;13718;50.922;5.346;2022-11-30T11:15:26;11.10;99.90
25914;DHT22;13718;50.922;5.346;2022-11-30T11:20:36;11.00;99.90
25914;DHT22;13718;50.922;5.346;2022-11-30T11:23:03;10.90;99.90
25914;DHT22;13718;50.922;5.346;2022-11-30T11:25:36;11.00;99.90
25914;DHT22;13718;50.922;5.346;2022-11-30T11:28:11;11.00;99.90
25914;DHT22;13718;50.922;5.346;2022-11-30T11:30:38;10.90;99.90
25914;DHT22;13718;50.922;5.346;2022-11-30T11:35:44;10.90;99.90
25914;DHT22;13718;50.922;5.346;2022-11-30T11:41:17;10.60;99.90
25914;DHT22;13718;50.922;5.346;2022-11-30T11:46:37;10.40;99.90
25914;DHT22;13718;50.922;5.346;2022-11-30T11:49:22;10.30;99.90
25914;DHT22;13718;50.922;5.346;2022-11-30T11:51:59;10.30;99.90
25914;DHT22;13718;50.922;5.346;2022-11-30T11:56:58;10.20;99.90
25914;DHT22;13718;50.922;5.346;2022-11-30T11:59:47;10.20;99.90
25914;DHT22;13718;50.922;5.346;2022-11-30T12:02:28;10.10;99.90
25914;DHT22;13718;50.922;5.346;2022-11-30T12:10:40;10.00;99.90
25914;DHT22;13718;50.922;5.346;2022-11-30T12:13:14;10.00;99.90
25914;DHT22;13718;50.922;5.346;2022-11-30T12:18:37;10.20;99.90
25914;DHT22;13718;50.922;5.346;2022-11-30T12:24:15;10.40;99.90
25914;DHT22;13718;50.922;5.346;2022-11-30T12:26:47;10.70;99.90
25914;DHT22;13718;50.922;5.346;2022-11-30T12:29:26;10.90;99.90
25914;DHT22;13718;50.922;5.346;2022-11-30T12:32:02;11.00;99.90
25914;DHT22;13718;50.922;5.346;2022-11-30T12:40:20;11.30;99.90
25914;DHT22;13718;50.922;5.346;2022-11-30T12:45:27;11.10;99.90
25914;DHT22;13718;50.922;5.346;2022-11-30T12:53:44;11.00;99.90
25914;DHT22;13718;50.922;5.346;2022-11-30T13:02:11;11.10;99.90
25914;DHT22;13718;50.922;5.346;2022-11-30T13:04:43;11.00;99.90
25914;DHT22;13718;50.922;5.346;2022-11-30T13:09:52;10.90;99.90
25914;DHT22;13718;50.922;5.346;2022-11-30T13:12:31;10.90;99.90
25914;DHT22;13718;50.922;5.346;2022-11-30T13:15:12;10.90;99.90
25914;DHT22;13718;50.922;5.346;2022-11-30T13:17:39;10.90;99.90
25914;DHT22;13718;50.922;5.346;2022-11-30T13:20:19;10.90;99.90
25914;DHT22;13718;50.922;5.346;2022-11-30T13:31:23;10.40;99.90
25914;DHT22;13718;50.922;5.346;2022-11-30T13:41:45;10.40;99.90
25914;DHT22;13718;50.922;5.346;2022-11-30T13:44:32;10.50;99.90
25914;DHT22;13718;50.922;5.346;2022-11-30T13:47:00;10.70;99.90
25914;DHT22;13718;50.922;5.346;2022-11-30T13:49:30;10.70;99.90
25914;DHT22;13718;50.922;5.346;2022-11-30T13:51:58;10.80;99.90
25914;DHT22;13718;50.922;5.346;2022-11-30T13:59:55;10.70;99.90
25914;DHT22;13718;50.922;5.346;2022-11-30T14:23:14;10.40;99.90
25914;DHT22;13718;50.922;5.346;2022-11-30T14:25:47;10.40;99.90
25914;DHT22;13718;50.922;5.346;2022-11-30T14:28:16;10.40;99.90
25914;DHT22;13718;50.922;5.346;2022-11-30T14:30:44;10.40;99.90
25914;DHT22;13718;50.922;5.346;2022-11-30T14:33:16;10.40;99.90
25914;DHT22;13718;50.922;5.346;2022-11-30T14:35:42;10.40;99.90
25914;DHT22;13718;50.922;5.346;2022-11-30T14:38:22;10.30;99.90
25914;DHT22;13718;50.922;5.346;2022-11-30T14:40:50;10.30;99.90
25914;DHT22;13718;50.922;5.346;2022-11-30T14:43:17;10.30;99.90
25914;DHT22;13718;50.922;5.346;2022-11-30T14:45:55;10.30;99.90
25914;DHT22;13718;50.922;5.346;2022-11-30T14:48:21;10.30;99.90
25914;DHT22;13718;50.922;5.346;2022-11-30T14:50:52;10.30;99.90
25914;DHT22;13718;50.922;5.346;2022-11-30T14:56:28;10.10;99.90
25914;DHT22;13718;50.922;5.346;2022-11-30T15:02:01;10.00;99.90
25914;DHT22;13718;50.922;5.346;2022-11-30T15:04:28;10.00;99.90
25914;DHT22;13718;50.922;5.346;2022-11-30T15:06:55;10.00;99.90
25914;DHT22;13718;50.922;5.346;2022-11-30T15:09:29;9.90;99.90
25914;DHT22;13718;50.922;5.346;2022-11-30T15:11:56;9.90;99.90
25914;DHT22;13718;50.922;5.346;2022-11-30T15:14:22;9.90;99.90
25914;DHT22;13718;50.922;5.346;2022-11-30T15:16:53;9.80;99.90
25914;DHT22;13718;50.922;5.346;2022-11-30T15:21:50;10.00;99.90
25914;DHT22;13718;50.922;5.346;2022-11-30T15:24:16;10.00;99.90
25914;DHT22;13718;50.922;5.346;2022-11-30T15:29:45;9.70;99.90
25914;DHT22;13718;50.922;5.346;2022-11-30T15:32:17;9.60;99.90
25914;DHT22;13718;50.922;5.346;2022-11-30T15:34:44;9.60;99.90
25914;DHT22;13718;50.922;5.346;2022-11-30T15:37:12;9.50;99.90
25914;DHT22;13718;50.922;5.346;2022-11-30T15:39:38;9.60;99.90
25914;DHT22;13718;50.922;5.346;2022-11-30T15:42:05;9.50;99.90
25914;DHT22;13718;50.922;5.346;2022-11-30T15:44:39;9.80;99.90
25914;DHT22;13718;50.922;5.346;2022-11-30T15:47:21;9.90;99.90
25914;DHT22;13718;50.922;5.346;2022-11-30T15:49:52;9.70;99.90
25914;DHT22;13718;50.922;5.346;2022-11-30T15:52:20;9.50;99.90
25914;DHT22;13718;50.922;5.346;2022-11-30T15:54:59;9.30;99.90
25914;DHT22;13718;50.922;5.346;2022-11-30T15:58:00;9.30;99.90
25914;DHT22;13718;50.922;5.346;2022-11-30T16:00:27;9.20;99.90
25914;DHT22;13718;50.922;5.346;2022-11-30T16:03:12;9.20;99.90
25914;DHT22;13718;50.922;5.346;2022-11-30T16:05:38;9.20;99.90
25914;DHT22;13718;50.922;5.346;2022-11-30T16:08:13;9.20;99.90
25914;DHT22;13718;50.922;5.346;2022-11-30T16:10:40;9.20;99.90
25914;DHT22;13718;50.922;5.346;2022-11-30T16:13:14;9.40;99.90
25914;DHT22;13718;50.922;5.346;2022-11-30T16:15:43;9.30;99.90
25914;DHT22;13718;50.922;5.346;2022-11-30T16:18:19;9.40;99.90
25914;DHT22;13718;50.922;5.346;2022-11-30T16:20:50;9.30;99.90
25914;DHT22;13718;50.922;5.346;2022-11-30T16:23:17;9.30;99.90
25914;DHT22;13718;50.922;5.346;2022-11-30T16:25:44;9.30;99.90
25914;DHT22;13718;50.922;5.346;2022-11-30T16:28:12;9.30;99.90
25914;DHT22;13718;50.922;5.346;2022-11-30T16:30:39;9.30;99.90
25914;DHT22;13718;50.922;5.346;2022-11-30T16:33:22;9.30;99.90
25914;DHT22;13718;50.922;5.346;2022-11-30T16:38:22;9.20;99.90
25914;DHT22;13718;50.922;5.346;2022-11-30T16:40:48;9.20;99.90
25914;DHT22;13718;50.922;5.346;2022-11-30T16:43:14;9.20;99.90
25914;DHT22;13718;50.922;5.346;2022-11-30T16:45:41;9.30;99.90
25914;DHT22;13718;50.922;5.346;2022-11-30T16:48:08;9.30;99.90
25914;DHT22;13718;50.922;5.346;2022-11-30T16:50:34;9.30;99.90
25914;DHT22;13718;50.922;5.346;2022-11-30T16:53:01;9.40;99.90
25914;DHT22;13718;50.922;5.346;2022-11-30T16:55:33;9.50;99.90
25914;DHT22;13718;50.922;5.346;2022-11-30T16:58:00;9.40;99.90
25914;DHT22;13718;50.922;5.346;2022-11-30T17:00:26;9.40;99.90
25914;DHT22;13718;50.922;5.346;2022-11-30T17:05:18;9.30;99.90
25914;DHT22;13718;50.922;5.346;2022-11-30T17:07:43;9.30;99.90
25914;DHT22;13718;50.922;5.346;2022-11-30T17:10:09;9.30;99.90
25914;DHT22;13718;50.922;5.346;2022-11-30T17:12:35;9.30;99.90
25914;DHT22;13718;50.922;5.346;2022-11-30T17:15:01;9.30;99.90
25914;DHT22;13718;50.922;5.346;2022-11-30T17:17:27;9.30;99.90
25914;DHT22;13718;50.922;5.346;2022-11-30T17:19:53;9.30;99.90
25914;DHT22;13718;50.922;5.346;2022-11-30T17:22:18;9.30;99.90
25914;DHT22;13718;50.922;5.346;2022-11-30T17:24:44;9.30;99.90
25914;DHT22;13718;50.922;5.346;2022-11-30T17:27:10;9.30;99.90
25914;DHT22;13718;50.922;5.346;2022-11-30T17:29:37;9.30;99.90
25914;DHT22;13718;50.922;5.346;2022-11-30T17:32:03;9.30;99.90
25914;DHT22;13718;50.922;5.346;2022-11-30T17:34:29;9.30;99.90
25914;DHT22;13718;50.922;5.346;2022-11-30T17:36:54;9.40;99.90
25914;DHT22;13718;50.922;5.346;2022-11-30T17:39:21;9.40;99.90
25914;DHT22;13718;50.922;5.346;2022-11-30T17:41:47;9.30;99.90
25914;DHT22;13718;50.922;5.346;2022-11-30T17:44:13;9.30;99.90
25914;DHT22;13718;50.922;5.346;2022-11-30T17:46:38;9.30;99.90
25914;DHT22;13718;50.922;5.346;2022-11-30T17:49:04;9.40;99.90
25914;DHT22;13718;50.922;5.346;2022-11-30T17:51:30;9.40;99.90
25914;DHT22;13718;50.922;5.346;2022-11-30T17:53:56;9.30;99.90
25914;DHT22;13718;50.922;5.346;2022-11-30T17:56:22;9.30;99.90
25914;DHT22;13718;50.922;5.346;2022-11-30T17:58:47;9.30;99.90
25914;DHT22;13718;50.922;5.346;2022-11-30T18:01:21;9.30;99.90
25914;DHT22;13718;50.922;5.346;2022-11-30T18:03:47;9.30;99.90
25914;DHT22;13718;50.922;5.346;2022-11-30T18:06:13;9.20;99.90
25914;DHT22;13718;50.922;5.346;2022-11-30T18:08:39;9.10;99.90
25914;DHT22;13718;50.922;5.346;2022-11-30T18:11:14;9.10;99.90
25914;DHT22;13718;50.922;5.346;2022-11-30T18:13:40;9.10;99.90
25914;DHT22;13718;50.922;5.346;2022-11-30T18:16:17;9.10;99.90
25914;DHT22;13718;50.922;5.346;2022-11-30T18:18:43;9.10;99.90